sensor_id;sensor_type;location;lat;lon;timestamp;P1;durP1;ratioP1;P2;durP2;ratioP2
32347;SDS011;18821;44.800;10.326;2023-04-19T00:01:05;5.65;;;4.15;;
32347;SDS011;18821;44.800;10.326;2023-04-19T00:03:31;6.78;;;4.38;;
32347;SDS011;18821;44.800;10.326;2023-04-19T00:05:57;5.35;;;3.70;;
32347;SDS011;18821;44.800;10.326;2023-04-19T00:08:24;7.22;;;4.22;;
32347;SDS011;18821;44.800;10.326;2023-04-19T00:10:50;6.45;;;3.95;;
32347;SDS011;18821;44.800;10.326;2023-04-19T00:13:16;5.65;;;3.78;;
32347;SDS011;18821;44.800;10.326;2023-04-19T00:15:42;5.78;;;3.90;;
32347;SDS011;18821;44.800;10.326;2023-04-19T00:18:10;4.30;;;3.30;;
32347;SDS011;18821;44.800;10.326;2023-04-19T00:20:36;6.78;;;4.45;;
32347;SDS011;18821;44.800;10.326;2023-04-19T00:23:03;7.40;;;4.18;;
32347;SDS011;18821;44.800;10.326;2023-04-19T00:25:29;8.35;;;4.20;;
32347;SDS011;18821;44.800;10.326;2023-04-19T00:27:56;9.85;;;4.40;;
32347;SDS011;18821;44.800;10.326;2023-04-19T00:30:22;6.15;;;4.53;;
32347;SDS011;18821;44.800;10.326;2023-04-19T00:32:49;8.88;;;4.40;;
32347;SDS011;18821;44.800;10.326;2023-04-19T00:35:15;5.97;;;4.38;;
32347;SDS011;18821;44.800;10.326;2023-04-19T00:37:41;5.13;;;3.97;;
32347;SDS011;18821;44.800;10.326;2023-04-19T00:40:07;5.78;;;4.20;;
32347;SDS011;18821;44.800;10.326;2023-04-19T00:42:36;5.60;;;4.03;;
32347;SDS011;18821;44.800;10.326;2023-04-19T00:45:02;5.28;;;3.90;;
32347;SDS011;18821;44.800;10.326;2023-04-19T00:47:29;7.75;;;3.58;;
32347;SDS011;18821;44.800;10.326;2023-04-19T00:49:55;6.30;;;3.70;;
32347;SDS011;18821;44.800;10.326;2023-04-19T00:52:21;6.05;;;3.85;;
32347;SDS011;18821;44.800;10.326;2023-04-19T00:54:47;6.00;;;4.40;;
32347;SDS011;18821;44.800;10.326;2023-04-19T00:57:14;6.40;;;4.10;;
32347;SDS011;18821;44.800;10.326;2023-04-19T00:59:42;8.75;;;4.53;;
32347;SDS011;18821;44.800;10.326;2023-04-19T01:02:08;5.85;;;4.38;;
32347;SDS011;18821;44.800;10.326;2023-04-19T01:04:34;6.25;;;4.10;;
32347;SDS011;18821;44.800;10.326;2023-04-19T01:07:01;7.03;;;3.92;;
32347;SDS011;18821;44.800;10.326;2023-04-19T01:09:30;6.78;;;4.38;;
32347;SDS011;18821;44.800;10.326;2023-04-19T01:11:56;9.05;;;4.07;;
32347;SDS011;18821;44.800;10.326;2023-04-19T01:14:22;5.57;;;4.03;;
32347;SDS011;18821;44.800;10.326;2023-04-19T01:16:48;5.88;;;3.85;;
32347;SDS011;18821;44.800;10.326;2023-04-19T01:19:15;6.60;;;4.15;;
32347;SDS011;18821;44.800;10.326;2023-04-19T01:21:41;9.98;;;4.60;;
32347;SDS011;18821;44.800;10.326;2023-04-19T01:24:08;6.82;;;4.03;;
32347;SDS011;18821;44.800;10.326;2023-04-19T01:26:34;13.20;;;5.20;;
32347;SDS011;18821;44.800;10.326;2023-04-19T01:29:01;5.25;;;4.20;;
32347;SDS011;18821;44.800;10.326;2023-04-19T01:31:27;6.70;;;4.22;;
32347;SDS011;18821;44.800;10.326;2023-04-19T01:33:53;6.18;;;3.95;;
32347;SDS011;18821;44.800;10.326;2023-04-19T01:36:18;7.47;;;3.92;;
32347;SDS011;18821;44.800;10.326;2023-04-19T01:38:44;5.45;;;3.83;;
32347;SDS011;18821;44.800;10.326;2023-04-19T01:41:12;5.75;;;4.32;;
32347;SDS011;18821;44.800;10.326;2023-04-19T01:43:38;6.85;;;4.43;;
32347;SDS011;18821;44.800;10.326;2023-04-19T01:46:04;6.85;;;4.45;;
32347;SDS011;18821;44.800;10.326;2023-04-19T01:48:30;7.45;;;4.18;;
32347;SDS011;18821;44.800;10.326;2023-04-19T01:50:55;7.15;;;4.05;;
32347;SDS011;18821;44.800;10.326;2023-04-19T01:53:21;5.15;;;3.80;;
32347;SDS011;18821;44.800;10.326;2023-04-19T01:55:48;5.68;;;3.80;;
32347;SDS011;18821;44.800;10.326;2023-04-19T01:58:15;6.07;;;3.67;;
32347;SDS011;18821;44.800;10.326;2023-04-19T02:00:41;5.65;;;4.22;;
32347;SDS011;18821;44.800;10.326;2023-04-19T02:03:07;5.60;;;4.10;;
32347;SDS011;18821;44.800;10.326;2023-04-19T02:05:33;6.35;;;4.40;;
32347;SDS011;18821;44.800;10.326;2023-04-19T02:07:59;5.60;;;3.95;;
32347;SDS011;18821;44.800;10.326;2023-04-19T02:10:29;6.65;;;3.92;;
32347;SDS011;18821;44.800;10.326;2023-04-19T02:12:55;5.55;;;4.07;;
32347;SDS011;18821;44.800;10.326;2023-04-19T02:15:21;7.38;;;4.47;;
32347;SDS011;18821;44.800;10.326;2023-04-19T02:17:47;5.78;;;4.20;;
32347;SDS011;18821;44.800;10.326;2023-04-19T02:20:12;4.88;;;3.80;;
32347;SDS011;18821;44.800;10.326;2023-04-19T02:22:38;5.97;;;3.50;;
32347;SDS011;18821;44.800;10.326;2023-04-19T02:25:04;5.47;;;4.00;;
32347;SDS011;18821;44.800;10.326;2023-04-19T02:27:31;5.53;;;3.72;;
32347;SDS011;18821;44.800;10.326;2023-04-19T02:29:58;5.55;;;3.53;;
32347;SDS011;18821;44.800;10.326;2023-04-19T02:32:24;5.00;;;3.72;;
32347;SDS011;18821;44.800;10.326;2023-04-19T02:34:50;4.45;;;3.55;;
32347;SDS011;18821;44.800;10.326;2023-04-19T02:37:16;4.32;;;3.60;;
32347;SDS011;18821;44.800;10.326;2023-04-19T02:39:43;5.03;;;3.72;;
32347;SDS011;18821;44.800;10.326;2023-04-19T02:42:10;5.63;;;3.80;;
32347;SDS011;18821;44.800;10.326;2023-04-19T02:44:36;5.10;;;3.70;;
32347;SDS011;18821;44.800;10.326;2023-04-19T02:47:02;4.90;;;3.70;;
32347;SDS011;18821;44.800;10.326;2023-04-19T02:49:29;5.25;;;3.80;;
32347;SDS011;18821;44.800;10.326;2023-04-19T02:52:00;5.43;;;3.63;;
32347;SDS011;18821;44.800;10.326;2023-04-19T02:54:25;4.30;;;3.40;;
32347;SDS011;18821;44.800;10.326;2023-04-19T02:56:51;7.30;;;3.78;;
32347;SDS011;18821;44.800;10.326;2023-04-19T02:59:17;6.45;;;4.00;;
32347;SDS011;18821;44.800;10.326;2023-04-19T03:01:44;10.50;;;4.55;;
32347;SDS011;18821;44.800;10.326;2023-04-19T03:04:10;6.22;;;4.05;;
32347;SDS011;18821;44.800;10.326;2023-04-19T03:06:38;5.28;;;3.58;;
32347;SDS011;18821;44.800;10.326;2023-04-19T03:09:04;6.15;;;3.75;;
32347;SDS011;18821;44.800;10.326;2023-04-19T03:11:30;6.15;;;4.00;;
32347;SDS011;18821;44.800;10.326;2023-04-19T03:13:57;6.55;;;3.88;;
32347;SDS011;18821;44.800;10.326;2023-04-19T03:16:23;5.25;;;4.10;;
32347;SDS011;18821;44.800;10.326;2023-04-19T03:18:49;6.68;;;3.90;;
32347;SDS011;18821;44.800;10.326;2023-04-19T03:21:18;4.85;;;3.40;;
32347;SDS011;18821;44.800;10.326;2023-04-19T03:23:51;8.43;;;3.95;;
32347;SDS011;18821;44.800;10.326;2023-04-19T03:26:18;5.10;;;3.65;;
32347;SDS011;18821;44.800;10.326;2023-04-19T03:28:46;8.65;;;4.80;;
32347;SDS011;18821;44.800;10.326;2023-04-19T03:31:12;5.38;;;3.95;;
32347;SDS011;18821;44.800;10.326;2023-04-19T03:33:39;6.70;;;4.22;;
32347;SDS011;18821;44.800;10.326;2023-04-19T03:36:05;6.75;;;4.15;;
32347;SDS011;18821;44.800;10.326;2023-04-19T03:38:32;6.82;;;4.25;;
32347;SDS011;18821;44.800;10.326;2023-04-19T03:40:59;9.43;;;4.65;;
32347;SDS011;18821;44.800;10.326;2023-04-19T03:43:29;10.40;;;5.10;;
32347;SDS011;18821;44.800;10.326;2023-04-19T03:45:54;10.60;;;5.50;;
32347;SDS011;18821;44.800;10.326;2023-04-19T03:48:21;6.90;;;4.38;;
32347;SDS011;18821;44.800;10.326;2023-04-19T03:50:47;4.70;;;3.80;;
32347;SDS011;18821;44.800;10.326;2023-04-19T03:53:16;11.23;;;4.90;;
32347;SDS011;18821;44.800;10.326;2023-04-19T03:55:43;7.22;;;4.45;;
32347;SDS011;18821;44.800;10.326;2023-04-19T03:58:10;6.82;;;3.97;;
32347;SDS011;18821;44.800;10.326;2023-04-19T04:00:45;5.95;;;4.45;;
32347;SDS011;18821;44.800;10.326;2023-04-19T04:03:12;12.65;;;5.18;;
32347;SDS011;18821;44.800;10.326;2023-04-19T04:05:40;9.07;;;4.80;;
32347;SDS011;18821;44.800;10.326;2023-04-19T04:08:05;7.90;;;4.43;;
32347;SDS011;18821;44.800;10.326;2023-04-19T04:10:31;6.25;;;3.58;;
32347;SDS011;18821;44.800;10.326;2023-04-19T04:12:58;13.60;;;4.55;;
32347;SDS011;18821;44.800;10.326;2023-04-19T04:15:33;8.20;;;4.38;;
32347;SDS011;18821;44.800;10.326;2023-04-19T04:18:00;9.93;;;4.05;;
32347;SDS011;18821;44.800;10.326;2023-04-19T04:20:26;9.63;;;4.50;;
32347;SDS011;18821;44.800;10.326;2023-04-19T04:22:59;14.90;;;5.13;;
32347;SDS011;18821;44.800;10.326;2023-04-19T04:25:25;8.20;;;4.72;;
32347;SDS011;18821;44.800;10.326;2023-04-19T04:27:54;8.02;;;4.60;;
32347;SDS011;18821;44.800;10.326;2023-04-19T04:30:23;9.95;;;4.57;;
32347;SDS011;18821;44.800;10.326;2023-04-19T04:32:49;14.52;;;4.80;;
32347;SDS011;18821;44.800;10.326;2023-04-19T04:35:15;8.90;;;4.90;;
32347;SDS011;18821;44.800;10.326;2023-04-19T04:37:49;7.20;;;4.47;;
32347;SDS011;18821;44.800;10.326;2023-04-19T04:40:18;26.05;;;6.13;;
32347;SDS011;18821;44.800;10.326;2023-04-19T04:42:45;16.75;;;6.43;;
32347;SDS011;18821;44.800;10.326;2023-04-19T04:45:12;13.02;;;5.65;;
32347;SDS011;18821;44.800;10.326;2023-04-19T04:47:41;9.27;;;5.00;;
32347;SDS011;18821;44.800;10.326;2023-04-19T04:50:09;11.82;;;4.85;;
32347;SDS011;18821;44.800;10.326;2023-04-19T04:52:35;12.05;;;5.18;;
32347;SDS011;18821;44.800;10.326;2023-04-19T04:55:25;9.40;;;5.50;;
32347;SDS011;18821;44.800;10.326;2023-04-19T04:57:52;19.67;;;6.10;;
32347;SDS011;18821;44.800;10.326;2023-04-19T05:00:33;16.88;;;6.85;;
32347;SDS011;18821;44.800;10.326;2023-04-19T05:03:06;11.85;;;6.00;;
32347;SDS011;18821;44.800;10.326;2023-04-19T05:05:37;18.48;;;6.47;;
32347;SDS011;18821;44.800;10.326;2023-04-19T05:08:04;7.72;;;5.18;;
32347;SDS011;18821;44.800;10.326;2023-04-19T05:10:30;8.07;;;4.82;;
32347;SDS011;18821;44.800;10.326;2023-04-19T05:12:57;10.75;;;5.57;;
32347;SDS011;18821;44.800;10.326;2023-04-19T05:15:24;13.60;;;5.50;;
32347;SDS011;18821;44.800;10.326;2023-04-19T05:17:53;18.98;;;7.28;;
32347;SDS011;18821;44.800;10.326;2023-04-19T05:20:20;13.45;;;6.78;;
32347;SDS011;18821;44.800;10.326;2023-04-19T05:22:55;12.55;;;6.60;;
32347;SDS011;18821;44.800;10.326;2023-04-19T05:25:22;12.10;;;6.63;;
32347;SDS011;18821;44.800;10.326;2023-04-19T05:27:48;10.65;;;6.35;;
32347;SDS011;18821;44.800;10.326;2023-04-19T05:30:14;11.02;;;6.25;;
32347;SDS011;18821;44.800;10.326;2023-04-19T05:32:43;17.05;;;6.47;;
32347;SDS011;18821;44.800;10.326;2023-04-19T05:35:12;13.35;;;6.20;;
32347;SDS011;18821;44.800;10.326;2023-04-19T05:37:38;12.15;;;5.90;;
32347;SDS011;18821;44.800;10.326;2023-04-19T05:40:05;11.52;;;5.72;;
32347;SDS011;18821;44.800;10.326;2023-04-19T05:42:37;13.63;;;6.20;;
32347;SDS011;18821;44.800;10.326;2023-04-19T05:45:03;11.63;;;6.57;;
32347;SDS011;18821;44.800;10.326;2023-04-19T05:47:31;11.13;;;6.03;;
32347;SDS011;18821;44.800;10.326;2023-04-19T05:50:16;11.77;;;6.03;;
32347;SDS011;18821;44.800;10.326;2023-04-19T05:52:48;16.50;;;6.28;;
32347;SDS011;18821;44.800;10.326;2023-04-19T05:55:14;20.77;;;7.13;;
32347;SDS011;18821;44.800;10.326;2023-04-19T05:57:44;15.23;;;6.50;;
32347;SDS011;18821;44.800;10.326;2023-04-19T06:00:10;15.63;;;6.28;;
32347;SDS011;18821;44.800;10.326;2023-04-19T06:02:46;27.17;;;6.93;;
32347;SDS011;18821;44.800;10.326;2023-04-19T06:05:12;27.35;;;7.25;;
32347;SDS011;18821;44.800;10.326;2023-04-19T06:07:38;21.27;;;7.57;;
32347;SDS011;18821;44.800;10.326;2023-04-19T06:10:05;11.63;;;6.32;;
32347;SDS011;18821;44.800;10.326;2023-04-19T06:12:31;10.00;;;5.90;;
32347;SDS011;18821;44.800;10.326;2023-04-19T06:14:57;12.20;;;6.40;;
32347;SDS011;18821;44.800;10.326;2023-04-19T06:17:24;11.52;;;5.97;;
32347;SDS011;18821;44.800;10.326;2023-04-19T06:19:51;17.52;;;6.25;;
32347;SDS011;18821;44.800;10.326;2023-04-19T06:22:17;7.05;;;4.85;;
32347;SDS011;18821;44.800;10.326;2023-04-19T06:24:43;8.57;;;4.20;;
32347;SDS011;18821;44.800;10.326;2023-04-19T06:27:10;12.80;;;3.97;;
32347;SDS011;18821;44.800;10.326;2023-04-19T06:29:36;7.80;;;3.88;;
32347;SDS011;18821;44.800;10.326;2023-04-19T06:32:02;5.93;;;3.70;;
32347;SDS011;18821;44.800;10.326;2023-04-19T06:34:29;5.43;;;3.40;;
32347;SDS011;18821;44.800;10.326;2023-04-19T06:36:54;6.68;;;2.92;;
32347;SDS011;18821;44.800;10.326;2023-04-19T06:39:21;4.43;;;2.95;;
32347;SDS011;18821;44.800;10.326;2023-04-19T06:41:47;6.90;;;4.05;;
32347;SDS011;18821;44.800;10.326;2023-04-19T06:44:15;6.22;;;3.03;;
32347;SDS011;18821;44.800;10.326;2023-04-19T06:46:42;6.20;;;3.25;;
32347;SDS011;18821;44.800;10.326;2023-04-19T06:49:08;14.73;;;3.90;;
32347;SDS011;18821;44.800;10.326;2023-04-19T06:51:37;6.85;;;3.33;;
32347;SDS011;18821;44.800;10.326;2023-04-19T06:54:03;6.22;;;3.35;;
32347;SDS011;18821;44.800;10.326;2023-04-19T06:56:40;5.18;;;3.00;;
32347;SDS011;18821;44.800;10.326;2023-04-19T06:59:06;7.53;;;2.78;;
32347;SDS011;18821;44.800;10.326;2023-04-19T07:01:32;4.78;;;3.13;;
32347;SDS011;18821;44.800;10.326;2023-04-19T07:03:58;7.32;;;3.00;;
32347;SDS011;18821;44.800;10.326;2023-04-19T07:06:24;12.60;;;3.83;;
32347;SDS011;18821;44.800;10.326;2023-04-19T07:08:51;7.95;;;3.03;;
32347;SDS011;18821;44.800;10.326;2023-04-19T07:11:16;21.77;;;9.65;;
32347;SDS011;18821;44.800;10.326;2023-04-19T07:13:42;12.48;;;4.70;;
32347;SDS011;18821;44.800;10.326;2023-04-19T07:16:09;18.50;;;3.88;;
32347;SDS011;18821;44.800;10.326;2023-04-19T07:18:34;13.60;;;4.05;;
32347;SDS011;18821;44.800;10.326;2023-04-19T07:21:00;8.63;;;3.03;;
32347;SDS011;18821;44.800;10.326;2023-04-19T07:23:26;5.10;;;2.50;;
32347;SDS011;18821;44.800;10.326;2023-04-19T07:25:52;14.65;;;3.78;;
32347;SDS011;18821;44.800;10.326;2023-04-19T07:28:18;11.98;;;3.50;;
32347;SDS011;18821;44.800;10.326;2023-04-19T07:30:44;9.43;;;3.03;;
32347;SDS011;18821;44.800;10.326;2023-04-19T07:33:12;4.55;;;2.90;;
32347;SDS011;18821;44.800;10.326;2023-04-19T07:35:38;4.85;;;2.60;;
32347;SDS011;18821;44.800;10.326;2023-04-19T07:38:04;2.78;;;2.10;;
32347;SDS011;18821;44.800;10.326;2023-04-19T07:40:30;8.43;;;2.60;;
32347;SDS011;18821;44.800;10.326;2023-04-19T07:42:56;6.30;;;2.75;;
32347;SDS011;18821;44.800;10.326;2023-04-19T07:45:22;5.93;;;2.53;;
32347;SDS011;18821;44.800;10.326;2023-04-19T07:47:48;6.43;;;2.58;;
32347;SDS011;18821;44.800;10.326;2023-04-19T07:50:14;7.72;;;3.53;;
32347;SDS011;18821;44.800;10.326;2023-04-19T07:52:40;4.03;;;3.20;;
32347;SDS011;18821;44.800;10.326;2023-04-19T07:55:06;5.90;;;3.88;;
32347;SDS011;18821;44.800;10.326;2023-04-19T07:57:33;5.53;;;3.55;;
32347;SDS011;18821;44.800;10.326;2023-04-19T08:00:00;4.57;;;3.17;;
32347;SDS011;18821;44.800;10.326;2023-04-19T08:02:28;5.40;;;3.35;;
32347;SDS011;18821;44.800;10.326;2023-04-19T08:04:54;5.15;;;3.25;;
32347;SDS011;18821;44.800;10.326;2023-04-19T08:07:22;6.07;;;3.00;;
32347;SDS011;18821;44.800;10.326;2023-04-19T08:09:49;4.78;;;3.00;;
32347;SDS011;18821;44.800;10.326;2023-04-19T08:12:16;6.40;;;2.75;;
32347;SDS011;18821;44.800;10.326;2023-04-19T08:14:43;5.13;;;3.00;;
32347;SDS011;18821;44.800;10.326;2023-04-19T08:17:09;5.32;;;2.70;;
32347;SDS011;18821;44.800;10.326;2023-04-19T08:19:35;7.50;;;2.70;;
32347;SDS011;18821;44.800;10.326;2023-04-19T08:22:01;3.63;;;2.33;;
32347;SDS011;18821;44.800;10.326;2023-04-19T08:24:28;6.03;;;2.10;;
32347;SDS011;18821;44.800;10.326;2023-04-19T08:26:55;6.35;;;2.95;;
32347;SDS011;18821;44.800;10.326;2023-04-19T08:29:22;5.20;;;2.50;;
32347;SDS011;18821;44.800;10.326;2023-04-19T08:31:48;3.53;;;2.50;;
32347;SDS011;18821;44.800;10.326;2023-04-19T08:34:13;4.38;;;2.50;;
32347;SDS011;18821;44.800;10.326;2023-04-19T08:36:39;6.28;;;2.92;;
32347;SDS011;18821;44.800;10.326;2023-04-19T08:39:05;4.45;;;2.70;;
32347;SDS011;18821;44.800;10.326;2023-04-19T08:41:31;5.55;;;3.00;;
32347;SDS011;18821;44.800;10.326;2023-04-19T08:43:58;6.63;;;3.05;;
32347;SDS011;18821;44.800;10.326;2023-04-19T08:46:26;5.07;;;3.20;;
32347;SDS011;18821;44.800;10.326;2023-04-19T08:48:54;6.95;;;3.58;;
32347;SDS011;18821;44.800;10.326;2023-04-19T08:51:21;7.28;;;2.78;;
32347;SDS011;18821;44.800;10.326;2023-04-19T08:53:47;4.50;;;3.13;;
32347;SDS011;18821;44.800;10.326;2023-04-19T08:56:14;4.50;;;3.30;;
32347;SDS011;18821;44.800;10.326;2023-04-19T08:58:40;6.18;;;3.38;;
32347;SDS011;18821;44.800;10.326;2023-04-19T09:01:06;3.28;;;2.60;;
32347;SDS011;18821;44.800;10.326;2023-04-19T09:03:33;5.03;;;2.80;;
32347;SDS011;18821;44.800;10.326;2023-04-19T09:06:02;6.25;;;2.63;;
32347;SDS011;18821;44.800;10.326;2023-04-19T09:08:32;3.63;;;2.50;;
32347;SDS011;18821;44.800;10.326;2023-04-19T09:10:58;4.03;;;2.60;;
32347;SDS011;18821;44.800;10.326;2023-04-19T09:13:29;4.47;;;2.08;;
32347;SDS011;18821;44.800;10.326;2023-04-19T09:15:56;3.80;;;2.45;;
32347;SDS011;18821;44.800;10.326;2023-04-19T09:18:24;4.50;;;2.13;;
32347;SDS011;18821;44.800;10.326;2023-04-19T09:20:51;2.88;;;2.08;;
32347;SDS011;18821;44.800;10.326;2023-04-19T09:23:26;2.80;;;1.95;;
32347;SDS011;18821;44.800;10.326;2023-04-19T09:25:54;2.42;;;1.73;;
32347;SDS011;18821;44.800;10.326;2023-04-19T09:28:22;3.33;;;1.80;;
32347;SDS011;18821;44.800;10.326;2023-04-19T09:30:48;6.47;;;2.05;;
32347;SDS011;18821;44.800;10.326;2023-04-19T09:33:34;3.55;;;2.25;;
32347;SDS011;18821;44.800;10.326;2023-04-19T09:36:04;2.20;;;1.50;;
32347;SDS011;18821;44.800;10.326;2023-04-19T09:38:46;4.68;;;1.85;;
32347;SDS011;18821;44.800;10.326;2023-04-19T09:41:16;2.58;;;1.90;;
32347;SDS011;18821;44.800;10.326;2023-04-19T09:43:42;4.05;;;2.88;;
32347;SDS011;18821;44.800;10.326;2023-04-19T09:46:08;4.20;;;2.30;;
32347;SDS011;18821;44.800;10.326;2023-04-19T09:48:53;4.28;;;2.90;;
32347;SDS011;18821;44.800;10.326;2023-04-19T09:51:20;3.88;;;2.30;;
32347;SDS011;18821;44.800;10.326;2023-04-19T09:53:46;3.10;;;1.95;;
32347;SDS011;18821;44.800;10.326;2023-04-19T09:56:13;2.95;;;2.65;;
32347;SDS011;18821;44.800;10.326;2023-04-19T09:58:39;2.70;;;2.40;;
32347;SDS011;18821;44.800;10.326;2023-04-19T10:01:05;3.88;;;2.63;;
32347;SDS011;18821;44.800;10.326;2023-04-19T10:03:36;3.40;;;2.13;;
32347;SDS011;18821;44.800;10.326;2023-04-19T10:06:02;3.30;;;2.00;;
32347;SDS011;18821;44.800;10.326;2023-04-19T10:08:28;3.00;;;2.45;;
32347;SDS011;18821;44.800;10.326;2023-04-19T10:10:56;2.80;;;2.08;;
32347;SDS011;18821;44.800;10.326;2023-04-19T10:13:25;2.35;;;2.08;;
32347;SDS011;18821;44.800;10.326;2023-04-19T10:15:51;4.00;;;2.60;;
32347;SDS011;18821;44.800;10.326;2023-04-19T10:18:18;5.13;;;2.75;;
32347;SDS011;18821;44.800;10.326;2023-04-19T10:23:19;3.50;;;2.80;;
32347;SDS011;18821;44.800;10.326;2023-04-19T10:25:47;5.60;;;2.85;;
32347;SDS011;18821;44.800;10.326;2023-04-19T10:28:16;5.28;;;2.90;;
32347;SDS011;18821;44.800;10.326;2023-04-19T10:30:59;4.03;;;2.33;;
32347;SDS011;18821;44.800;10.326;2023-04-19T10:33:27;3.50;;;1.90;;
32347;SDS011;18821;44.800;10.326;2023-04-19T10:35:56;4.80;;;2.40;;
32347;SDS011;18821;44.800;10.326;2023-04-19T10:38:37;3.80;;;2.47;;
32347;SDS011;18821;44.800;10.326;2023-04-19T10:41:05;4.53;;;3.20;;
32347;SDS011;18821;44.800;10.326;2023-04-19T10:43:39;4.35;;;2.90;;
32347;SDS011;18821;44.800;10.326;2023-04-19T10:51:20;4.63;;;2.97;;
32347;SDS011;18821;44.800;10.326;2023-04-19T10:53:58;5.00;;;3.10;;
32347;SDS011;18821;44.800;10.326;2023-04-19T11:04:05;4.43;;;3.08;;
32347;SDS011;18821;44.800;10.326;2023-04-19T11:06:32;3.70;;;2.90;;
32347;SDS011;18821;44.800;10.326;2023-04-19T11:08:58;3.58;;;2.92;;
32347;SDS011;18821;44.800;10.326;2023-04-19T11:11:26;4.63;;;3.28;;
32347;SDS011;18821;44.800;10.326;2023-04-19T11:13:56;11.82;;;3.63;;
32347;SDS011;18821;44.800;10.326;2023-04-19T11:16:26;6.20;;;3.97;;
32347;SDS011;18821;44.800;10.326;2023-04-19T11:18:52;4.80;;;2.85;;
32347;SDS011;18821;44.800;10.326;2023-04-19T11:21:20;12.35;;;3.33;;
32347;SDS011;18821;44.800;10.326;2023-04-19T11:23:47;7.68;;;5.28;;
32347;SDS011;18821;44.800;10.326;2023-04-19T11:26:14;7.82;;;4.25;;
32347;SDS011;18821;44.800;10.326;2023-04-19T11:28:40;9.48;;;3.70;;
32347;SDS011;18821;44.800;10.326;2023-04-19T11:31:08;6.68;;;4.05;;
32347;SDS011;18821;44.800;10.326;2023-04-19T11:33:35;8.23;;;3.67;;
32347;SDS011;18821;44.800;10.326;2023-04-19T11:36:01;5.20;;;3.13;;
32347;SDS011;18821;44.800;10.326;2023-04-19T11:38:29;5.20;;;4.00;;
32347;SDS011;18821;44.800;10.326;2023-04-19T11:40:59;7.95;;;3.63;;
32347;SDS011;18821;44.800;10.326;2023-04-19T11:43:32;5.60;;;3.97;;
32347;SDS011;18821;44.800;10.326;2023-04-19T11:46:09;5.95;;;3.85;;
32347;SDS011;18821;44.800;10.326;2023-04-19T11:48:37;6.68;;;4.18;;
32347;SDS011;18821;44.800;10.326;2023-04-19T11:51:04;5.43;;;3.03;;
32347;SDS011;18821;44.800;10.326;2023-04-19T11:53:31;4.03;;;3.25;;
32347;SDS011;18821;44.800;10.326;2023-04-19T11:56:04;5.30;;;3.97;;
32347;SDS011;18821;44.800;10.326;2023-04-19T12:03:33;4.80;;;3.40;;
32347;SDS011;18821;44.800;10.326;2023-04-19T12:06:14;4.40;;;3.28;;
32347;SDS011;18821;44.800;10.326;2023-04-19T12:08:54;5.45;;;3.22;;
32347;SDS011;18821;44.800;10.326;2023-04-19T12:11:23;4.45;;;3.35;;
32347;SDS011;18821;44.800;10.326;2023-04-19T12:14:09;6.88;;;4.07;;
32347;SDS011;18821;44.800;10.326;2023-04-19T12:16:36;4.50;;;3.70;;
32347;SDS011;18821;44.800;10.326;2023-04-19T12:19:12;5.95;;;4.13;;
32347;SDS011;18821;44.800;10.326;2023-04-19T12:21:40;6.00;;;3.88;;
32347;SDS011;18821;44.800;10.326;2023-04-19T12:24:06;7.28;;;4.38;;
32347;SDS011;18821;44.800;10.326;2023-04-19T12:26:32;6.13;;;4.32;;
32347;SDS011;18821;44.800;10.326;2023-04-19T12:28:59;5.43;;;4.18;;
32347;SDS011;18821;44.800;10.326;2023-04-19T12:31:26;5.75;;;4.10;;
32347;SDS011;18821;44.800;10.326;2023-04-19T12:33:52;5.20;;;3.45;;
32347;SDS011;18821;44.800;10.326;2023-04-19T12:36:18;6.53;;;3.63;;
32347;SDS011;18821;44.800;10.326;2023-04-19T12:38:44;6.18;;;4.32;;
32347;SDS011;18821;44.800;10.326;2023-04-19T12:41:10;5.18;;;3.50;;
32347;SDS011;18821;44.800;10.326;2023-04-19T12:43:36;6.95;;;4.25;;
32347;SDS011;18821;44.800;10.326;2023-04-19T12:46:02;6.45;;;3.65;;
32347;SDS011;18821;44.800;10.326;2023-04-19T12:48:29;5.82;;;3.40;;
32347;SDS011;18821;44.800;10.326;2023-04-19T12:50:55;5.13;;;3.83;;
32347;SDS011;18821;44.800;10.326;2023-04-19T12:53:21;7.82;;;3.50;;
32347;SDS011;18821;44.800;10.326;2023-04-19T12:55:49;7.57;;;4.70;;
32347;SDS011;18821;44.800;10.326;2023-04-19T12:58:16;8.52;;;4.30;;
32347;SDS011;18821;44.800;10.326;2023-04-19T13:00:42;5.28;;;3.80;;
32347;SDS011;18821;44.800;10.326;2023-04-19T13:03:09;4.68;;;3.28;;
32347;SDS011;18821;44.800;10.326;2023-04-19T13:05:36;4.53;;;3.72;;
32347;SDS011;18821;44.800;10.326;2023-04-19T13:08:03;5.95;;;3.95;;
32347;SDS011;18821;44.800;10.326;2023-04-19T13:10:29;7.40;;;3.67;;
32347;SDS011;18821;44.800;10.326;2023-04-19T13:12:55;3.85;;;2.90;;
32347;SDS011;18821;44.800;10.326;2023-04-19T13:15:23;6.18;;;4.13;;
32347;SDS011;18821;44.800;10.326;2023-04-19T13:17:49;5.15;;;3.70;;
32347;SDS011;18821;44.800;10.326;2023-04-19T13:20:17;3.20;;;2.47;;
32347;SDS011;18821;44.800;10.326;2023-04-19T13:22:44;4.97;;;3.58;;
32347;SDS011;18821;44.800;10.326;2023-04-19T13:25:10;3.88;;;2.90;;
32347;SDS011;18821;44.800;10.326;2023-04-19T13:27:36;4.68;;;2.95;;
32347;SDS011;18821;44.800;10.326;2023-04-19T13:30:02;5.40;;;2.95;;
32347;SDS011;18821;44.800;10.326;2023-04-19T13:32:29;6.03;;;3.60;;
32347;SDS011;18821;44.800;10.326;2023-04-19T13:34:55;5.13;;;3.67;;
32347;SDS011;18821;44.800;10.326;2023-04-19T13:37:22;6.22;;;3.72;;
32347;SDS011;18821;44.800;10.326;2023-04-19T13:39:48;5.28;;;3.72;;
32347;SDS011;18821;44.800;10.326;2023-04-19T13:42:14;8.45;;;3.38;;
32347;SDS011;18821;44.800;10.326;2023-04-19T13:44:40;3.97;;;3.00;;
32347;SDS011;18821;44.800;10.326;2023-04-19T13:47:06;5.20;;;3.50;;
32347;SDS011;18821;44.800;10.326;2023-04-19T13:49:32;5.70;;;2.67;;
32347;SDS011;18821;44.800;10.326;2023-04-19T13:51:57;7.00;;;3.33;;
32347;SDS011;18821;44.800;10.326;2023-04-19T13:54:24;10.07;;;3.28;;
32347;SDS011;18821;44.800;10.326;2023-04-19T13:56:50;5.85;;;3.28;;
32347;SDS011;18821;44.800;10.326;2023-04-19T13:59:16;4.32;;;3.03;;
32347;SDS011;18821;44.800;10.326;2023-04-19T14:01:41;5.88;;;3.50;;
32347;SDS011;18821;44.800;10.326;2023-04-19T14:04:07;5.25;;;2.88;;
32347;SDS011;18821;44.800;10.326;2023-04-19T14:06:33;5.50;;;2.72;;
32347;SDS011;18821;44.800;10.326;2023-04-19T14:08:59;8.13;;;3.72;;
32347;SDS011;18821;44.800;10.326;2023-04-19T14:11:25;5.35;;;2.90;;
32347;SDS011;18821;44.800;10.326;2023-04-19T14:13:51;4.00;;;3.03;;
32347;SDS011;18821;44.800;10.326;2023-04-19T14:16:17;6.47;;;2.50;;
32347;SDS011;18821;44.800;10.326;2023-04-19T14:18:44;4.90;;;2.55;;
32347;SDS011;18821;44.800;10.326;2023-04-19T14:21:10;4.15;;;2.90;;
32347;SDS011;18821;44.800;10.326;2023-04-19T14:23:36;3.88;;;2.60;;
32347;SDS011;18821;44.800;10.326;2023-04-19T14:26:02;3.28;;;2.60;;
32347;SDS011;18821;44.800;10.326;2023-04-19T14:28:28;2.95;;;1.80;;
32347;SDS011;18821;44.800;10.326;2023-04-19T14:30:54;4.30;;;2.92;;
32347;SDS011;18821;44.800;10.326;2023-04-19T14:33:20;4.05;;;2.80;;
32347;SDS011;18821;44.800;10.326;2023-04-19T14:35:47;8.55;;;2.58;;
32347;SDS011;18821;44.800;10.326;2023-04-19T14:38:13;5.45;;;3.08;;
32347;SDS011;18821;44.800;10.326;2023-04-19T14:40:38;3.97;;;2.03;;
32347;SDS011;18821;44.800;10.326;2023-04-19T14:43:04;3.20;;;2.40;;
32347;SDS011;18821;44.800;10.326;2023-04-19T14:45:30;7.65;;;2.78;;
32347;SDS011;18821;44.800;10.326;2023-04-19T14:47:56;3.83;;;2.60;;
32347;SDS011;18821;44.800;10.326;2023-04-19T14:50:22;6.35;;;2.17;;
32347;SDS011;18821;44.800;10.326;2023-04-19T14:52:48;3.75;;;2.72;;
32347;SDS011;18821;44.800;10.326;2023-04-19T14:55:14;6.80;;;3.03;;